Jepson Prairie Reserve, California Weather observations

Data are for 10 minute period ending at time listed.
 Day   Time   Solar   Ave.   Ave.  Ave.  Vector  Max.   Baro.   Total    
  of    of     Rad.   Air    Rel.  Wind   Wind   Wind  Press.  Precip.   
Year   Day            Temp.  Hum.  Speed  Dir.   Gust                    
2016   (PST)  Kw/m2    F      %     mph   deg.    mph    mb.     in.     
-------------------------------------------------------------------------
 118   17:10   0.10   60.5    66    7.0   280     9.6   1007.8    0.00 
 118   17:20   0.11   60.9    63    7.4   276    10.3   1007.8    0.00 
 118   17:30   0.21   62.1    59    6.5   273     9.3   1007.8    0.00 
 118   17:40   0.19   63.0    58    7.7   272    12.0   1007.8    0.00 
 118   17:50   0.16   62.7    61    8.1   264    10.7   1007.8    0.00 
 118   18:00   0.12   62.2    61    8.5   254    11.1   1007.8    0.00 
 118   18:10   0.09   61.6    64    7.3   254     9.8   1007.8    0.00 
 118   18:20   0.07   60.8    63    7.5   252    10.2   1007.8    0.00 
 118   18:30   0.07   60.6    64    3.5   267     8.1   1007.8    0.00 
 118   18:40   0.04   58.9    71    7.6    78    10.4   1007.8    0.00 
 118   18:50   0.02   57.6    73    9.6   102    11.5   1007.8    0.00 
 118   19:00   0.00   57.6    70    5.0   147     8.3   1007.8    0.00 
 118   19:10   0.00   57.0    72    3.0   156     5.6   1007.8    0.00 
 118   19:20   0.00   55.7    76    4.8   135     6.3   1007.8    0.00 
 118   19:30   0.00   53.6    82    6.7   166    11.2   1007.8    0.00 
 118   19:40   0.00   54.3    80    7.2   196    11.7   1007.8    0.00 
 118   19:50   0.00   53.8    82    8.6   194    11.1   1007.8    0.00 
 118   20:00   0.00   53.9    84    7.9   197     9.9   1007.8    0.00 
 118   20:10   0.00   53.2    86    8.3   196    10.2   1007.8    0.00 
 118   20:20   0.00   53.0    86    8.0   205     9.7   1007.8    0.00 
 118   20:30   0.00   52.8    87    8.5   215    10.1   1008.1    0.00 
 118   20:40   0.00   52.4    88    8.0   213     9.8   1008.1    0.00 
 118   20:50   0.00   51.7    89    7.6   214     9.1   1008.1    0.00 
 118   21:00   0.00   50.9    90    7.5   223     8.9   1007.8    0.00 
 118   21:10   0.00   50.2    91    7.6   227     8.8   1007.8    0.00 
 118   21:20   0.00   49.7    92    6.3   227     7.5   1007.8    0.00 
 118   21:30   0.00   49.4    93    6.1   218     6.7   1007.8    0.00 
 118   21:40   0.00   49.0    93    5.5   216     6.4   1007.8    0.00 
 118   21:50   0.00   48.6    93    6.0   214     6.9   1008.1    0.00 
 118   22:00   0.00   48.5    93    6.0   217     6.6   1008.1    0.00 
 118   22:10   0.00   48.3    93    6.1   214     7.1   1008.1    0.00 
 118   22:20   0.00   48.5    93    5.0   206     6.2   1008.1    0.00 
 118   22:30   0.00   48.4    93    6.3   206     7.0   1008.1    0.00 
 118   22:40   0.00   48.0    93    6.4   209     7.6   1008.1    0.00 
 118   22:50   0.00   48.0    93    6.2   208     7.2   1008.1    0.00 
 118   23:00   0.00   48.1    93    5.8   211     6.4   1008.1    0.00 
 118   23:10   0.00   47.9    93    6.7   210     7.8   1008.1    0.00 
 118   23:20   0.00   47.9    94    7.9   211     8.9   1008.1    0.00 
 118   23:30   0.00   48.5    94    7.6   212     8.8   1008.1    0.00 
 118   23:40   0.00   49.0    93    8.3   215     9.6   1008.1    0.00 
 118   23:50   0.00   49.2    92    8.3   210     9.8   1008.1    0.00 
 119    0:00   0.00   49.1    92    8.6   206     9.9   1008.1    0.00 
 119    0:10   0.00   49.2    92    9.2   212    10.7   1008.1    0.00 
 119    0:20   0.00   49.5    91    9.5   215    11.1   1008.1    0.00 
 119    0:30   0.00   49.5    91    8.7   213    10.7   1008.1    0.00 
 119    0:40   0.00   49.0    91    8.2   210     9.0   1008.1    0.00 
 119    0:50   0.00   48.7    92    9.7   209    11.1   1008.1    0.00 
 119    1:00   0.00   49.0    91   10.2   206    11.5   1007.8    0.00 
 119    1:10   0.00   49.3    90   10.4   205    11.9   1007.8    0.00 
 119    1:20   0.00   49.3    90   10.3   210    11.8   1007.8    0.00 
 119    1:30   0.00   49.5    90   10.6   214    13.2   1007.8    0.00 
 119    1:40   0.00   49.7    90   10.4   212    12.3   1007.8    0.00 
 119    1:50   0.00   49.5    89   10.3   214    12.6   1007.8    0.00 
 119    2:00   0.00   49.3    90   10.8   214    12.6   1007.8    0.00 
 119    2:10   0.00   49.0    90   11.6   212    13.4   1007.8    0.00 
 119    2:20   0.00   49.0    90   10.9   212    13.3   1007.8    0.00 
 119    2:30   0.00   48.9    90   10.9   210    12.9   1007.8    0.00 
 119    2:40   0.00   48.8    90   10.3   212    13.7   1007.8    0.00 
 119    2:50   0.00   48.5    90    8.4   219    11.2   1007.8    0.00 
 119    3:00   0.00   48.0    90    8.0   213    10.4   1007.8    0.00 
 119    3:10   0.00   47.7    91    7.3   204    10.3   1007.8    0.00 
 119    3:20   0.00   47.6    91    9.3   202    11.7   1007.8    0.00 
 119    3:30   0.00   47.7    91    9.6   209    12.3   1007.8    0.00 
 119    3:40   0.00   47.9    90   10.4   213    12.3   1008.1    0.00 
 119    3:50   0.00   48.3    89   10.3   213    12.7   1008.1    0.00 
 119    4:00   0.00   48.6    88    9.5   211    12.9   1008.1    0.00 
 119    4:10   0.00   48.4    88    5.7   204     9.3   1008.1    0.00 
 119    4:20   0.00   47.6    89    2.8   170     6.5   1008.1    0.00 
 119    4:30   0.00   47.6    89    5.6   198     9.6   1008.5    0.00 
 119    4:40   0.00   47.6    88    3.4   200     8.5   1008.5    0.00 
 119    4:50   0.00   47.0    91    9.0   198    11.2   1008.5    0.00 
 119    5:00   0.00   47.7    91    8.4   200    11.0   1008.5    0.00 
 119    5:10   0.00   47.6    91    7.6   197    10.5   1008.5    0.00 
 119    5:20   0.00   47.6    91    7.1   196    10.4   1008.5    0.00 
 119    5:30   0.02   48.2    90    7.1   197    10.4   1008.5    0.00 
 119    5:40   0.04   49.2    88    2.3   237     5.0   1008.8    0.00 
 119    5:50   0.06   49.8    87    5.7   218    10.5   1008.8    0.00 
 119    6:00   0.09   50.7    86    7.6   210    10.9   1008.8    0.00 
 119    6:10   0.12   51.8    85    7.3   213    10.2   1008.8    0.00 
 119    6:20   0.15   53.2    79    8.0   209    14.1   1009.1    0.00 
 119    6:30   0.18   54.1    78    8.2   214    12.3   1009.1    0.00 
 119    6:40   0.21   54.8    78    4.6   228     9.1   1009.1    0.00 
 119    6:50   0.24   56.0    75    7.3   213    10.1   1009.1    0.00 
 119    7:00   0.28   57.0    76    7.6   214    10.8   1009.1    0.00 
 119    7:10   0.31   57.4    76    9.6   215    12.6   1009.1    0.00 
 119    7:20   0.34   58.2    74    9.9   216    12.4   1009.1    0.00 
 119    7:30   0.37   59.0    70   10.2   220    14.2   1009.1    0.00 
 119    7:40   0.41   60.7    66    9.6   222    13.8   1009.5    0.00 
 119    7:50   0.44   61.0    65    9.5   230    12.3   1009.5    0.00 
 119    8:00   0.47   61.1    64    7.9   232    11.0   1009.5    0.00 
 119    8:10   0.50   62.0    62    9.7   221    13.2   1009.8    0.00 
 119    8:20   0.53   62.9    60    7.3   222    13.7   1009.8    0.00 
 119    8:30   0.56   64.1    58    8.2   267    16.0   1009.8    0.00 
 119    8:40   0.59   65.1    47   16.9   310    22.3   1009.8    0.00 
 119    8:50   0.62   65.5    46   19.3   311    26.7   1009.8    0.00 
 119    9:00   0.65   65.7    46   20.5   314    28.3   1009.8    0.00 
 119    9:10   0.68   66.0    45   21.3   316    27.2   1009.8    0.00 
 119    9:20   0.70   66.6    44   20.6   321    26.7   1009.8    0.00 
 119    9:30   0.73   67.1    44   20.6   319    27.5   1009.5    0.00 
 119    9:40   0.75   67.4    43   20.8   316    26.4   1009.8    0.00 
 119    9:50   0.77   68.0    43   20.0   309    25.3   1009.8    0.00 
 119   10:00   0.79   68.4    42   19.0   312    25.4   1009.8    0.00 
 119   10:10   0.81   68.8    40   22.4   314    30.3   1009.8    0.00 
 119   10:20   0.83   68.9    40   20.3   324    25.8   1009.8    0.00 
 119   10:30   0.85   69.5    40   19.7   322    25.9   1009.8    0.00 
 119   10:40   0.86   69.7    38   21.3   309    28.3   1009.8    0.00 
 119   10:50   0.88   70.2    38   20.7   322    28.3   1009.8    0.00 
 119   11:00   0.89   70.6    38   19.1   309    25.1   1010.2    0.00 
 119   11:10   0.89   71.1    38   17.5   308    24.5   1010.2    0.00 
 119   11:20   0.91   71.3    36   19.1   312    24.5   1010.2    0.00 
 119   11:30   0.91   71.4    37   19.0   321    24.5   1009.8    0.00 
 119   11:40   0.92   71.6    36   19.9   326    26.5   1009.8    0.00 
 119   11:50   0.92   71.9    36   18.1   322    24.5   1009.8    0.00 
 119   12:00   0.93   72.0    37   20.1   325    25.1   1009.8    0.00 
 119   12:10   0.93   72.1    36   18.0   316    23.8   1009.8    0.00 
 119   12:20   0.93   72.1    37   15.6   326    22.3   1009.8    0.00 
 119   12:30   0.92   72.6    35   15.7   322    24.5   1009.8    0.00 
 119   12:40   0.92   72.9    34   16.4   318    23.7   1009.5    0.00 
 119   12:50   0.91   73.3    34   16.1   319    22.8   1009.5    0.00 
 119   13:00   0.91   73.6    32   18.7   322    24.2   1009.5    0.00 
 119   13:10   0.90   73.6    32   18.0   322    23.7   1009.5    0.00 
 119   13:20   0.89   73.8    32   17.8   323    24.3   1009.5    0.00 
 119   13:30   0.88   74.2    32   13.8   319    21.5   1009.5    0.00 
 119   13:40   0.86   74.6    30   13.8   316    21.0   1009.5    0.00 
 119   13:50   0.85   75.3    31   11.4   325    21.9   1009.5    0.00 
 119   14:00   0.83   75.2    31   12.9   333    19.2   1009.5    0.00 
 119   14:10   0.81   75.3    31   12.6   341    20.8   1009.1    0.00 
 119   14:20   0.79   76.1    28   13.2   312    18.9   1009.1    0.00 
 119   14:30   0.76   76.5    28   12.7   308    18.3   1009.1    0.00 
 119   14:40   0.73   77.7    37   12.4   241    17.5   1009.1    0.00 
 119   14:50   0.70   76.7    41   15.5   229    22.9   1009.1    0.00 
 119   15:00   0.68   76.2    42   17.2   224    22.4   1008.8    0.00 
 119   15:10   0.65   76.0    42   16.6   221    23.1   1008.8    0.00 
 119   15:20   0.63   76.1    42   18.4   227    23.2   1008.8    0.00 
 119   15:30   0.59   75.6    42   19.5   222    28.6   1008.8    0.00 
 119   15:40   0.57   75.1    43   19.7   227    24.4   1008.8    0.00 
 119   15:50   0.55   74.6    43   20.6   222    25.5   1008.8    0.00 
 119   16:00   0.52   74.6    44   19.1   220    23.8   1008.8    0.00 
 119   16:10   0.48   74.6    44   18.0   225    24.2   1008.8    0.00 
 119   16:20   0.45   73.7    44   19.9   229    27.0   1008.8    0.00 
 119   16:30   0.42   72.5    47   21.3   229    26.9   1008.8    0.00 
 119   16:40   0.38   72.1    47   19.7   223    26.5   1008.8    0.00 
 119   16:50   0.35   71.4    49   20.3   225    25.6   1008.8    0.00 
 119   17:00   0.32   71.0    48   20.3   224    25.8   1009.1    0.00 

Return to Jepson Prairie Reserve graphs page.


Western Regional Climate Center,wrcc@dri.edu